Time;durP1;ratioP1;P1;durP2;ratioP2;P2;SDS_P1;SDS_P2;PMS_P1;PMS_P2;Temp;Humidity;BMP_temperature;BMP_pressure;BME280_temperature;BME280_humidity;BME280_pressure;Samples;Min_cycle;Max_cycle;Signal;HPM_P1;HPM_P2
2022/02/03 00:00:41;;;;;;;6.03;4.50;;;5.40;99.90;;;;;;6214623;23;20051;-87
2022/02/03 00:03:25;;;;;;;5.72;4.30;;;5.30;99.90;;;;;;6214632;23;20422;-88
2022/02/03 00:06:00;;;;;;;5.78;4.25;;;5.40;99.90;;;;;;6214243;23;20004;-88
2022/02/03 00:16:42;;;;;;;6.10;4.20;;;5.30;99.90;;;;;;6216457;23;20015;-87
2022/02/03 00:24:53;;;;;;;5.80;3.75;;;5.40;99.90;;;;;;6226256;23;20004;-88
2022/02/03 00:30:20;;;;;;;7.50;4.03;;;5.40;99.90;;;;;;6224010;23;20009;-88
2022/02/03 00:38:03;;;;;;;6.50;4.57;;;5.40;99.90;;;;;;6216097;23;20012;-88
2022/02/03 00:48:54;;;;;;;5.70;3.97;;;5.30;99.90;;;;;;6226472;23;19937;-87
2022/02/03 00:51:22;;;;;;;5.75;3.65;;;5.40;99.90;;;;;;6219226;23;20032;-87
2022/02/03 00:53:49;;;;;;;4.95;3.63;;;5.30;99.90;;;;;;6245988;23;20001;-88
2022/02/03 00:56:17;;;;;;;4.85;3.90;;;5.30;99.90;;;;;;6219564;23;20083;-88
2022/02/03 00:58:51;;;;;;;5.07;3.50;;;5.30;99.90;;;;;;6220319;23;20000;-88
2022/02/03 01:01:18;;;;;;;;;;;5.40;99.90;;;;;;6219861;23;20008;-88
2022/02/03 01:03:46;;;;;;;5.07;3.60;;;5.40;99.90;;;;;;6246127;23;19910;-88
2022/02/03 01:06:14;;;;;;;4.57;3.40;;;5.30;99.90;;;;;;6219046;23;20058;-88
2022/02/03 01:08:45;;;;;;;7.28;4.15;;;5.30;99.90;;;;;;6219119;23;20111;-88
2022/02/03 01:11:23;;;;;;;5.28;3.60;;;5.30;99.90;;;;;;6245846;23;20024;-87
2022/02/03 01:14:03;;;;;;;4.93;3.85;;;5.30;99.90;;;;;;6219181;23;20061;-87
2022/02/03 01:46:00;;;;;;;4.40;3.42;;;5.30;99.90;;;;;;6258035;23;20317;-87
2022/02/03 01:49:02;;;;;;;4.30;3.20;;;5.40;99.90;;;;;;6215602;23;20051;-87
2022/02/03 01:51:43;;;;;;;4.38;3.22;;;5.30;99.90;;;;;;6217089;23;19997;-87
2022/02/03 01:54:09;;;;;;;4.68;3.40;;;5.30;99.90;;;;;;6217743;23;20032;-87
2022/02/03 01:56:49;;;;;;;5.30;3.50;;;5.30;99.90;;;;;;6217405;23;20302;-87
2022/02/03 01:59:21;;;;;;;6.35;3.60;;;5.40;99.90;;;;;;6215833;23;20058;-87
2022/02/03 02:01:51;;;;;;;5.22;3.40;;;5.30;99.90;;;;;;6215997;23;20092;-87
2022/02/03 02:04:41;;;;;;;4.88;3.30;;;5.30;99.90;;;;;;6215664;23;20005;-87
2022/02/03 02:07:26;;;;;;;4.38;3.45;;;5.40;99.90;;;;;;6215538;23;20028;-87
2022/02/03 02:13:31;;;;;;;4.82;3.40;;;5.30;99.90;;;;;;6227592;23;20425;-87
2022/02/03 02:38:12;;;;;;;4.70;3.28;;;5.30;99.90;;;;;;6217025;23;20069;-88
2022/02/03 02:43:35;;;;;;;3.47;3.05;;;5.30;99.90;;;;;;6227327;23;20008;-87
2022/02/03 02:46:30;;;;;;;4.20;2.80;;;5.30;99.90;;;;;;6216935;23;20004;-87
2022/02/03 02:49:40;;;;;;;4.53;3.33;;;5.40;99.90;;;;;;6159142;23;20020;-87
2022/02/03 02:52:15;;;;;;;4.50;3.40;;;5.30;99.90;;;;;;6196512;23;19997;-87
2022/02/03 03:31:47;;;;;;;4.38;2.85;;;5.30;99.90;;;;;;6247093;23;20011;-87
2022/02/03 03:34:34;;;;;;;3.65;3.00;;;5.40;99.90;;;;;;6220920;23;20012;-87
2022/02/03 03:37:04;;;;;;;3.47;2.75;;;5.30;99.90;;;;;;6219890;23;20441;-87
2022/02/03 03:39:38;;;;;;;3.67;2.90;;;5.30;99.90;;;;;;6219795;23;20082;-87
2022/02/03 03:42:04;;;;;;;;;;;5.40;99.90;;;;;;6219942;23;20011;-87
2022/02/03 03:44:31;;;;;;;3.20;2.83;;;5.30;99.90;;;;;;6219657;23;19907;-88
2022/02/03 03:47:03;;;;;;;3.63;2.80;;;5.30;99.90;;;;;;6219815;23;20332;-87
2022/02/03 03:49:38;;;;;;;4.05;2.95;;;5.30;99.90;;;;;;6219663;23;20016;-87
2022/02/03 03:52:05;;;;;;;;;;;5.30;99.90;;;;;;6247505;23;20516;-87
2022/02/03 03:54:40;;;;;;;3.53;2.78;;;5.30;99.90;;;;;;6219681;23;19914;-87
2022/02/03 04:32:24;;;;;;;3.20;2.78;;;5.30;99.90;;;;;;6256802;23;20012;-87
2022/02/03 04:37:54;;;;;;;3.40;2.75;;;5.30;99.90;;;;;;6246293;23;20387;-87
2022/02/03 04:40:43;;;;;;;3.47;2.88;;;5.30;99.90;;;;;;6245820;23;20364;-87
2022/02/03 05:04:34;;;;;;;2.97;2.47;;;5.30;99.90;;;;;;6245990;23;20015;-87
2022/02/03 05:08:21;;;;;;;2.55;2.33;;;5.30;99.90;;;;;;6209792;23;20467;-87
2022/02/03 05:11:31;;;;;;;3.20;2.57;;;5.30;99.90;;;;;;6193106;23;20030;-87
2022/02/03 05:18:00;;;;;;;2.75;2.45;;;5.30;99.90;;;;;;6153599;23;20164;-87
2022/02/03 05:32:54;;;;;;;3.03;2.40;;;5.30;99.90;;;;;;6246353;23;20233;-87
2022/02/03 06:00:44;;;;;;;5.10;2.70;;;5.30;99.90;;;;;;6246158;23;20047;-87
2022/02/03 06:05:50;;;;;;;4.97;3.45;;;5.30;99.90;;;;;;6247586;23;20052;-87
2022/02/03 06:08:53;;;;;;;3.38;2.67;;;5.30;99.90;;;;;;6220697;23;20081;-87
2022/02/03 06:14:12;;;;;;;3.95;2.83;;;5.30;99.90;;;;;;6247617;23;20394;-87
2022/02/03 06:27:45;;;;;;;;;;;5.30;99.90;;;;;;6167037;23;20028;-87
2022/02/03 06:30:17;;;;;;;3.00;2.50;;;5.30;99.90;;;;;;6247323;23;19899;-87
2022/02/03 06:32:43;;;;;;;3.60;2.88;;;5.30;99.90;;;;;;6220577;23;20008;-87
2022/02/03 06:35:11;;;;;;;4.95;3.05;;;5.30;99.90;;;;;;6247327;23;20027;-87
2022/02/03 06:37:37;;;;;;;3.63;2.80;;;5.30;99.90;;;;;;6220331;23;20008;-87
2022/02/03 06:40:10;;;;;;;2.65;2.28;;;5.30;99.90;;;;;;6220475;23;20372;-87
2022/02/03 06:42:37;;;;;;;3.92;2.90;;;5.30;99.90;;;;;;6220248;23;20031;-87
2022/02/03 06:45:14;;;;;;;3.17;2.60;;;5.30;99.90;;;;;;6220235;23;20336;-87
2022/02/03 06:48:03;;;;;;;3.97;2.75;;;5.30;99.90;;;;;;6220626;23;20001;-87
2022/02/03 06:50:40;;;;;;;3.20;2.38;;;5.30;99.90;;;;;;6220295;23;20086;-87
2022/02/03 06:53:16;;;;;;;3.38;2.70;;;5.30;99.90;;;;;;6220277;23;20075;-87
2022/02/03 06:55:52;;;;;;;4.57;3.00;;;5.30;99.90;;;;;;6221273;23;20004;-87
2022/02/03 06:58:25;;;;;;;3.80;2.70;;;5.30;99.90;;;;;;6220310;23;20000;-87
2022/02/03 07:01:06;;;;;;;3.58;2.35;;;5.30;99.90;;;;;;6221289;23;20333;-87
2022/02/03 07:03:36;;;;;;;3.95;2.75;;;5.30;99.90;;;;;;6220029;23;20008;-87
2022/02/03 07:06:02;;;;;;;3.50;2.88;;;5.30;99.90;;;;;;6220129;23;19996;-87
2022/02/03 07:08:30;;;;;;;3.47;2.70;;;5.30;99.90;;;;;;6220024;23;20007;-87
2022/02/03 07:10:56;;;;;;;3.70;3.30;;;5.30;99.90;;;;;;6220042;23;20083;-87
2022/02/03 07:13:23;;;;;;;3.60;2.92;;;5.30;99.90;;;;;;6246949;23;20018;-87
2022/02/03 07:15:49;;;;;;;4.28;3.03;;;5.30;99.90;;;;;;6220055;23;20000;-86
2022/02/03 07:18:14;;;;;;;4.00;2.65;;;5.30;99.90;;;;;;6219893;23;20066;-87
2022/02/03 07:20:41;;;;;;;4.75;2.63;;;5.30;99.90;;;;;;6219959;23;20011;-87
2022/02/03 07:23:06;;;;;;;3.00;2.30;;;5.30;99.90;;;;;;6219868;23;20007;-87
2022/02/03 07:25:33;;;;;;;4.15;2.78;;;5.30;99.90;;;;;;6219877;23;20426;-87
2022/02/03 07:28:01;;;;;;;4.10;2.85;;;5.30;99.90;;;;;;6219866;23;20047;-87
2022/02/03 07:30:27;;;;;;;3.17;2.60;;;5.30;99.90;;;;;;6219838;23;20138;-87
2022/02/03 07:32:56;;;;;;;3.35;2.72;;;5.30;99.90;;;;;;6219587;23;20003;-87
2022/02/03 07:35:22;;;;;;;4.07;2.58;;;5.30;99.90;;;;;;6219733;23;20008;-87
2022/02/03 07:37:50;;;;;;;3.92;2.60;;;5.30;99.90;;;;;;6246710;23;20000;-87
2022/02/03 07:40:17;;;;;;;3.20;2.55;;;5.30;99.90;;;;;;6220065;23;20004;-87
2022/02/03 07:42:46;;;;;;;3.03;2.50;;;5.30;99.90;;;;;;6246638;23;20004;-87
2022/02/03 07:45:12;;;;;;;3.28;2.70;;;5.30;99.90;;;;;;6219603;23;20008;-87
2022/02/03 07:47:52;;;;;;;2.97;2.53;;;5.30;99.90;;;;;;6219655;23;20122;-86
2022/02/03 07:50:18;;;;;;;3.72;2.70;;;5.30;99.90;;;;;;6220088;23;20012;-87
2022/02/03 07:52:46;;;;;;;4.55;2.85;;;5.30;99.90;;;;;;6219538;23;20020;-87
2022/02/03 07:55:13;;;;;;;2.80;2.17;;;5.40;99.90;;;;;;6246431;23;20042;-87
2022/02/03 07:57:51;;;;;;;3.15;2.53;;;5.30;99.90;;;;;;6219612;23;20011;-87
2022/02/03 08:00:18;;;;;;;4.93;2.55;;;5.30;99.90;;;;;;6246373;23;20001;-87
2022/02/03 08:02:44;;;;;;;4.68;2.72;;;5.30;99.90;;;;;;6219552;23;20054;-87
2022/02/03 08:05:16;;;;;;;3.50;2.42;;;5.30;99.90;;;;;;6219410;23;20004;-87
2022/02/03 08:08:05;;;;;;;2.78;2.20;;;5.30;99.90;;;;;;6220405;23;20088;-87
2022/02/03 08:10:41;;;;;;;3.45;2.58;;;5.30;99.90;;;;;;6219572;23;20015;-87
2022/02/03 08:13:10;;;;;;;3.63;2.80;;;5.30;99.90;;;;;;6219600;23;20000;-87
2022/02/03 08:15:38;;;;;;;4.18;2.78;;;5.30;99.90;;;;;;6246267;23;20007;-87
2022/02/03 08:18:09;;;;;;;3.45;2.60;;;5.40;99.90;;;;;;6219463;23;20459;-87
2022/02/03 08:20:34;;;;;;;3.85;2.60;;;5.40;99.90;;;;;;6220175;23;20071;-86
2022/02/03 08:25:53;;;;;;;3.72;2.70;;;5.40;99.90;;;;;;6246636;23;20011;-87
2022/02/03 08:31:21;;;;;;;3.10;2.50;;;5.50;99.90;;;;;;6211535;23;20449;-87
2022/02/03 08:33:50;;;;;;;3.47;2.50;;;5.50;99.90;;;;;;6219416;23;20000;-86
2022/02/03 08:36:16;;;;;;;3.58;2.90;;;5.50;99.90;;;;;;6219342;23;20008;-87
2022/02/03 08:41:07;;;;;;;2.92;2.35;;;5.60;99.90;;;;;;6247078;23;20023;-87
2022/02/03 08:43:35;;;;;;;4.03;2.70;;;5.60;99.90;;;;;;6219078;23;20008;-87
2022/02/03 08:46:05;;;;;;;3.60;2.58;;;5.60;99.90;;;;;;6219142;23;20458;-87
2022/02/03 08:48:32;;;;;;;2.92;2.35;;;5.70;99.90;;;;;;6218912;23;20043;-87
2022/02/03 08:50:59;;;;;;;3.28;2.42;;;6.10;99.90;;;;;;6219147;23;20437;-86
2022/02/03 08:53:33;;;;;;;4.63;2.60;;;6.90;99.90;;;;;;6219208;23;20004;-87
2022/02/03 08:56:20;;;;;;;3.67;2.60;;;7.20;99.90;;;;;;6219195;23;20340;-86
2022/02/03 09:57:55;;;;;;;3.13;2.53;;;7.40;99.90;;;;;;6258290;23;20011;-88
2022/02/03 10:03:13;;;;;;;3.25;2.50;;;7.00;99.90;;;;;;6247663;23;20345;-87
2022/02/03 10:06:12;;;;;;;3.45;2.85;;;6.90;99.90;;;;;;6220766;23;20008;-87
2022/02/03 10:08:48;;;;;;;3.15;2.55;;;6.80;99.90;;;;;;6220855;23;20079;-88
2022/02/03 10:11:26;;;;;;;2.92;2.30;;;6.70;99.90;;;;;;6220711;23;20075;-87
2022/02/03 10:13:57;;;;;;;3.72;2.92;;;6.60;99.90;;;;;;6220800;23;20031;-87
2022/02/03 10:16:35;;;;;;;3.78;2.67;;;6.50;99.90;;;;;;6220670;23;20035;-87
2022/02/03 10:19:05;;;;;;;3.45;2.72;;;6.40;99.90;;;;;;6220749;23;20019;-87
2022/02/03 10:21:31;;;;;;;3.40;2.55;;;6.30;99.90;;;;;;6220630;23;20087;-88
2022/02/03 10:24:00;;;;;;;3.85;2.72;;;6.30;99.90;;;;;;6247326;23;20000;-87
2022/02/03 10:26:38;;;;;;;3.15;2.55;;;6.30;99.90;;;;;;6220834;23;20000;-87
2022/02/03 10:29:06;;;;;;;4.15;2.63;;;6.20;99.90;;;;;;6220586;23;20451;-88
2022/02/03 10:31:43;;;;;;;3.53;2.35;;;6.20;99.90;;;;;;6247305;23;20389;-88
2022/02/03 10:34:13;;;;;;;2.97;2.63;;;6.10;99.90;;;;;;6221140;23;20011;-88
2022/02/03 10:36:59;;;;;;;4.30;2.45;;;6.20;99.90;;;;;;6220722;23;20004;-88
2022/02/03 10:45:24;;;;;;;2.80;2.50;;;6.20;99.90;;;;;;6247796;23;20058;-87
2022/02/03 10:55:38;;;;;;;3.45;2.42;;;6.20;99.90;;;;;;6221330;23;20008;-87
2022/02/03 11:01:49;;;;;;;2.72;2.35;;;6.40;99.90;;;;;;6257414;23;20004;-89
2022/02/03 11:08:39;;;;;;;2.97;2.40;;;6.30;99.90;;;;;;6247959;23;20443;-88
2022/02/03 11:11:12;;;;;;;3.88;2.75;;;6.30;99.90;;;;;;6220594;23;20008;-87
2022/02/03 11:13:38;;;;;;;2.43;2.20;;;6.30;99.90;;;;;;6220560;23;20043;-87
2022/02/03 11:16:06;;;;;;;3.88;2.53;;;6.30;99.90;;;;;;6220948;23;20575;-88
2022/02/03 11:18:32;;;;;;;3.50;2.28;;;6.30;99.90;;;;;;6219958;23;20008;-88
2022/02/03 11:21:00;;;;;;;3.08;2.40;;;6.30;99.90;;;;;;6220062;23;20494;-88
2022/02/03 11:57:33;;;;;;;3.13;2.35;;;6.30;99.90;;;;;;6247009;23;20065;-89
2022/02/03 12:19:04;;;;;;;2.65;2.20;;;6.30;99.90;;;;;;6246411;23;20310;-88
2022/02/03 12:24:16;;;;;;;3.17;2.50;;;6.40;99.90;;;;;;6246927;23;20020;-88
2022/02/03 12:29:46;;;;;;;2.67;2.20;;;6.40;99.90;;;;;;6246725;23;20011;-87
2022/02/03 12:32:22;;;;;;;2.67;2.20;;;6.40;99.90;;;;;;6219453;23;20000;-88
2022/02/03 12:38:03;;;;;;;3.10;2.10;;;6.40;99.90;;;;;;6246260;23;20054;-88
2022/02/03 12:43:03;;;;;;;3.88;2.63;;;6.40;99.90;;;;;;6246944;23;20015;-88
2022/02/03 12:45:30;;;;;;;2.67;2.03;;;6.40;99.90;;;;;;6220523;23;20012;-88
2022/02/03 12:48:06;;;;;;;2.53;2.20;;;6.40;99.90;;;;;;6219249;23;20080;-88
2022/02/03 12:50:34;;;;;;;3.05;2.20;;;6.40;99.90;;;;;;6219431;23;20004;-87
2022/02/03 12:53:02;;;;;;;3.65;2.38;;;6.40;99.90;;;;;;6219336;23;20075;-88
2022/02/03 12:55:36;;;;;;;3.08;2.10;;;6.30;99.90;;;;;;6219550;23;20004;-88
2022/02/03 12:58:13;;;;;;;3.30;2.13;;;6.40;99.90;;;;;;6219104;23;20001;-88
2022/02/03 13:00:48;;;;;;;3.38;2.30;;;6.30;99.90;;;;;;6195094;23;20095;-87
2022/02/03 13:03:17;;;;;;;2.83;2.10;;;6.30;99.90;;;;;;6220375;23;20004;-88
2022/02/03 13:05:55;;;;;;;2.42;2.10;;;6.30;99.90;;;;;;6219035;23;20008;-88
2022/02/03 13:08:32;;;;;;;3.10;2.22;;;6.30;99.90;;;;;;6219309;23;20038;-88
2022/02/03 13:11:28;;;;;;;3.05;2.33;;;6.30;99.90;;;;;;6219309;23;20004;-88
2022/02/03 13:16:31;;;;;;;2.75;2.05;;;6.30;99.90;;;;;;6248822;23;20087;-87
2022/02/03 13:19:28;;;;;;;3.55;2.35;;;6.30;99.90;;;;;;6221916;23;20436;-87
2022/02/03 13:22:12;;;;;;;2.40;2.00;;;6.20;99.90;;;;;;6247633;23;20011;-88
2022/02/03 13:25:00;;;;;;;3.85;2.40;;;6.20;99.90;;;;;;6221086;23;20437;-88
2022/02/03 13:27:38;;;;;;;2.35;2.13;;;6.20;99.90;;;;;;6247617;23;20092;-87
2022/02/03 13:30:11;;;;;;;2.95;2.17;;;6.20;99.90;;;;;;6221161;23;20004;-87
2022/02/03 13:32:45;;;;;;;2.88;2.00;;;6.30;99.90;;;;;;6221060;23;20007;-88
2022/02/03 13:35:27;;;;;;;4.25;2.30;;;6.30;99.90;;;;;;6221110;23;20010;-88
2022/02/03 13:38:40;;;;;;;3.47;2.03;;;6.30;99.90;;;;;;6222037;23;20417;-88
2022/02/03 13:40:43;;;;;;;3.75;2.63;;;6.30;99.90;;;;;;6230634;23;20004;-88
2022/02/03 13:43:12;;;;;;;3.05;2.10;;;6.30;99.90;;;;;;6247842;23;20011;-88
2022/02/03 13:45:42;;;;;;;3.80;2.40;;;6.30;99.90;;;;;;6220734;23;20012;-88
2022/02/03 13:48:18;;;;;;;3.10;2.30;;;6.40;99.90;;;;;;6220579;23;20459;-88
2022/02/03 13:50:53;;;;;;;4.40;2.20;;;6.40;99.90;;;;;;6221079;23;20004;-87
2022/02/03 13:53:27;;;;;;;3.58;2.10;;;6.40;99.90;;;;;;6220840;23;20027;-88
2022/02/03 14:28:18;;;;;;;3.00;1.95;;;6.40;99.90;;;;;;6247785;23;20460;-87
2022/02/03 14:30:47;;;;;;;2.55;1.80;;;6.40;99.90;;;;;;6220797;23;19997;-89
2022/02/03 14:33:17;;;;;;;2.30;1.83;;;6.40;99.90;;;;;;6220569;23;20003;-88
2022/02/03 14:35:45;;;;;;;2.58;2.03;;;6.30;99.90;;;;;;6220623;23;20440;-87
2022/02/03 14:38:19;;;;;;;3.30;2.15;;;6.30;99.90;;;;;;6220340;23;20012;-88
2022/02/03 14:43:40;;;;;;;2.40;1.85;;;6.30;99.90;;;;;;6229050;23;20000;-89
2022/02/03 14:46:11;;;;;;;3.90;2.13;;;6.30;99.90;;;;;;6220272;23;20026;-89
2022/02/03 14:48:38;;;;;;;2.50;2.17;;;6.30;99.90;;;;;;6215711;23;20012;-88
2022/02/03 14:51:06;;;;;;;3.25;2.47;;;6.20;99.90;;;;;;6216948;23;19996;-88
2022/02/03 14:59:01;;;;;;;2.35;1.80;;;6.20;99.90;;;;;;6217217;23;19981;-87
2022/02/03 15:01:27;;;;;;;2.85;2.17;;;6.20;99.90;;;;;;6215231;23;20083;-88
2022/02/03 15:03:56;;;;;;;3.88;2.28;;;6.20;99.90;;;;;;6215227;23;20491;-88
2022/02/03 15:06:25;;;;;;;2.45;1.85;;;6.20;99.90;;;;;;6215354;23;19997;-88
2022/02/03 15:09:12;;;;;;;3.17;2.10;;;6.20;99.90;;;;;;6215036;23;20033;-88
2022/02/03 15:14:09;;;;;;;2.80;2.28;;;6.20;99.90;;;;;;6226928;23;20325;-89
2022/02/03 15:16:35;;;;;;;2.83;2.00;;;6.20;99.90;;;;;;6215323;23;20011;-89
2022/02/03 15:19:01;;;;;;;2.83;2.13;;;6.10;99.90;;;;;;6214977;23;20012;-88
2022/02/03 15:21:26;;;;;;;3.33;2.03;;;6.20;99.90;;;;;;6214887;23;20048;-89
2022/02/03 15:23:52;;;;;;;2.72;2.10;;;6.20;99.90;;;;;;6214899;23;20031;-88
2022/02/03 15:26:18;;;;;;;3.70;2.38;;;6.20;99.90;;;;;;6214937;23;20005;-88
2022/02/03 15:28:43;;;;;;;5.55;2.70;;;6.10;99.90;;;;;;6215068;23;20001;-89
2022/02/03 15:31:11;;;;;;;3.03;2.22;;;6.20;99.90;;;;;;6216569;23;20381;-89
2022/02/03 15:33:38;;;;;;;4.30;2.33;;;6.20;99.90;;;;;;6215144;23;20026;-89
2022/02/03 15:36:08;;;;;;;3.08;1.85;;;6.10;99.90;;;;;;6214936;23;20004;-88
2022/02/03 15:38:37;;;;;;;4.78;2.47;;;6.10;99.90;;;;;;6216049;23;20001;-88
2022/02/03 15:41:06;;;;;;;4.40;2.65;;;6.10;99.90;;;;;;6214969;23;20096;-89
2022/02/03 15:43:39;;;;;;;3.53;2.47;;;6.10;99.90;;;;;;6214736;23;20001;-89
2022/02/03 15:46:05;;;;;;;3.25;2.00;;;6.10;99.90;;;;;;6215018;23;20044;-89
2022/02/03 16:01:27;;;;;;;3.53;2.42;;;6.10;99.90;;;;;;6216366;23;20004;-88
2022/02/03 16:17:02;;;;;;;4.10;2.60;;;6.00;99.90;;;;;;6216296;23;20004;-88
2022/02/03 16:19:36;;;;;;;5.15;2.50;;;6.00;99.90;;;;;;6214437;23;20009;-87
2022/02/03 16:22:09;;;;;;;4.43;2.65;;;6.00;99.90;;;;;;6214363;23;20341;-87
2022/02/03 16:41:09;;;;;;;;;;;6.00;99.90;;;;;;6216755;23;20011;-88
2022/02/03 16:51:55;;;;;;;3.78;2.45;;;6.00;99.90;;;;;;6246263;23;20007;-87
2022/02/03 16:54:21;;;;;;;5.85;3.20;;;5.90;99.90;;;;;;6219257;23;20012;-88
2022/02/03 16:56:51;;;;;;;5.15;3.47;;;5.90;99.90;;;;;;6219260;23;20083;-88
2022/02/03 16:59:17;;;;;;;5.80;3.78;;;6.00;99.90;;;;;;6219213;23;20004;-88
2022/02/03 17:01:44;;;;;;;5.47;2.95;;;6.00;99.90;;;;;;6219251;23;20341;-88
2022/02/03 17:04:17;;;;;;;5.15;2.80;;;6.00;99.90;;;;;;6219124;23;20008;-88
2022/02/03 17:06:44;;;;;;;5.63;3.50;;;5.90;99.90;;;;;;6219195;23;19996;-88
2022/02/03 17:09:09;;;;;;;4.05;2.80;;;5.90;99.90;;;;;;6220226;23;20031;-88
2022/02/03 17:11:35;;;;;;;5.75;2.80;;;6.00;99.90;;;;;;6219189;23;20004;-88
2022/02/03 17:14:01;;;;;;;4.25;3.05;;;5.90;99.90;;;;;;6219527;23;20012;-88
2022/02/03 17:16:26;;;;;;;4.88;2.90;;;5.90;99.90;;;;;;6219739;23;20036;-88
2022/02/03 17:18:53;;;;;;;4.93;2.65;;;5.90;99.90;;;;;;6219775;23;20032;-88
2022/02/03 17:21:22;;;;;;;3.42;2.50;;;5.90;99.90;;;;;;6219124;23;20417;-87
2022/02/03 17:23:47;;;;;;;5.00;2.88;;;6.00;99.90;;;;;;6245196;23;20009;-88
2022/02/03 17:26:23;;;;;;;4.50;2.85;;;5.90;99.90;;;;;;6219285;23;20015;-88
2022/02/03 17:28:57;;;;;;;4.85;2.90;;;6.00;99.90;;;;;;6246351;23;20000;-88
2022/02/03 17:31:32;;;;;;;3.63;2.67;;;6.00;99.90;;;;;;6219274;23;20434;-88
2022/02/03 17:45:44;;;;;;;4.35;2.85;;;5.90;99.90;;;;;;6246178;23;20043;-88
2022/02/03 18:05:34;;;;;;;5.20;3.03;;;6.00;99.90;;;;;;6247621;23;20337;-88
2022/02/03 18:31:05;;;;;;;4.90;2.97;;;6.00;99.90;;;;;;6247953;23;20007;-88
2022/02/03 18:36:08;;;;;;;6.28;3.50;;;5.90;99.90;;;;;;6247868;23;20004;-88
2022/02/03 18:52:28;;;;;;;8.45;4.70;;;6.00;99.90;;;;;;6257623;23;20480;-88
2022/02/03 18:57:38;;;;;;;7.20;4.63;;;6.00;99.90;;;;;;6247254;23;20341;-88
2022/02/03 19:24:50;;;;;;;8.90;5.43;;;5.90;99.90;;;;;;6246820;23;20336;-88
2022/02/03 19:27:29;;;;;;;8.43;5.35;;;5.90;99.90;;;;;;6246485;23;20375;-88
2022/02/03 20:05:19;;;;;;;12.82;6.68;;;5.90;99.90;;;;;;6257003;23;20030;-88
2022/02/03 20:07:59;;;;;;;12.23;6.07;;;5.90;99.90;;;;;;6244239;23;20004;-88
2022/02/03 20:10:24;;;;;;;10.40;6.95;;;5.90;99.90;;;;;;6245924;23;20007;-88
2022/02/03 20:12:51;;;;;;;9.55;6.65;;;5.90;99.90;;;;;;6219633;23;20428;-88
2022/02/03 20:15:20;;;;;;;15.52;7.50;;;5.90;99.90;;;;;;6219671;23;20014;-88
2022/02/03 20:17:47;;;;;;;11.48;6.97;;;5.90;99.90;;;;;;6219615;23;20011;-89
2022/02/03 20:20:13;;;;;;;12.57;7.43;;;5.90;99.90;;;;;;6219715;23;20011;-89
2022/02/03 20:22:39;;;;;;;15.18;8.45;;;5.90;99.90;;;;;;6219467;23;20015;-89
2022/02/03 20:25:07;;;;;;;11.85;7.47;;;5.90;99.90;;;;;;6219448;23;20474;-88
2022/02/03 20:27:33;;;;;;;12.45;7.78;;;5.80;99.90;;;;;;6219503;23;20065;-88
2022/02/03 20:29:59;;;;;;;14.98;8.57;;;5.90;99.90;;;;;;6219631;23;20083;-89
2022/02/03 20:32:28;;;;;;;13.50;8.23;;;5.90;99.90;;;;;;6219551;23;20010;-89
2022/02/03 20:34:54;;;;;;;11.77;7.78;;;5.80;99.90;;;;;;6219495;23;20008;-89
2022/02/03 20:37:20;;;;;;;13.90;7.50;;;5.80;99.90;;;;;;6219615;23;20492;-89
2022/02/03 20:39:46;;;;;;;10.75;7.82;;;5.80;99.90;;;;;;6219715;23;20035;-89
2022/02/03 20:42:15;;;;;;;16.23;8.43;;;5.80;99.90;;;;;;6219339;23;20039;-89
2022/02/03 20:44:45;;;;;;;16.25;8.38;;;5.80;99.90;;;;;;6219545;23;20453;-89
2022/02/03 20:47:12;;;;;;;16.45;9.57;;;5.80;99.90;;;;;;6219520;23;20332;-88
2022/02/03 20:49:39;;;;;;;14.98;9.43;;;5.90;99.90;;;;;;6214173;23;20032;-88
2022/02/03 20:52:05;;;;;;;14.85;9.20;;;5.80;99.90;;;;;;6214492;23;20004;-88
2022/02/03 20:54:30;;;;;;;18.15;10.73;;;5.80;99.90;;;;;;6214834;23;20318;-89
2022/02/03 20:56:57;;;;;;;20.73;11.57;;;5.80;99.90;;;;;;6214321;23;20389;-88
2022/02/03 20:59:28;;;;;;;21.35;11.70;;;5.80;99.90;;;;;;6214249;23;20011;-88
2022/02/03 21:01:56;;;;;;;24.08;12.88;;;5.80;99.90;;;;;;6214272;23;20012;-88
2022/02/03 21:04:33;;;;;;;19.92;10.75;;;5.80;99.90;;;;;;6215597;23;20337;-88
2022/02/03 21:06:59;;;;;;;21.25;11.65;;;5.80;99.90;;;;;;6214146;23;20088;-89
2022/02/03 21:09:25;;;;;;;21.85;10.65;;;5.80;99.90;;;;;;6189421;23;20029;-88
2022/02/03 21:11:51;;;;;;;22.85;10.88;;;5.80;99.90;;;;;;6214245;23;20008;-89
2022/02/03 21:14:17;;;;;;;19.00;10.40;;;5.80;99.90;;;;;;6214381;23;20454;-89
2022/02/03 21:16:50;;;;;;;18.00;10.35;;;5.80;99.90;;;;;;6215769;23;20365;-89
2022/02/03 21:19:16;;;;;;;21.58;11.52;;;5.80;99.90;;;;;;6214245;23;20024;-89
2022/02/03 21:21:42;;;;;;;20.23;10.23;;;5.80;99.90;;;;;;6214118;23;20484;-89
2022/02/03 21:24:07;;;;;;;21.13;11.13;;;5.80;99.90;;;;;;6214204;23;20032;-89
2022/02/03 21:26:38;;;;;;;19.17;10.55;;;5.80;99.90;;;;;;6214316;23;20001;-89
2022/02/03 21:29:05;;;;;;;19.63;10.70;;;5.80;99.90;;;;;;6214301;23;20000;-89
2022/02/03 21:31:31;;;;;;;19.00;10.07;;;5.80;99.90;;;;;;6214668;23;20334;-89
2022/02/03 21:33:57;;;;;;;21.30;11.80;;;5.80;99.90;;;;;;6214452;23;20102;-89
2022/02/03 21:36:25;;;;;;;19.63;10.38;;;5.80;99.90;;;;;;6216336;23;20083;-89
2022/02/03 21:38:51;;;;;;;20.10;11.10;;;5.80;99.90;;;;;;6216367;23;20008;-89
2022/02/03 21:41:18;;;;;;;17.85;10.75;;;5.80;99.90;;;;;;6217957;23;20464;-89
2022/02/03 21:43:45;;;;;;;20.60;11.05;;;5.80;99.90;;;;;;6216258;23;20484;-89
2022/02/03 21:46:11;;;;;;;20.52;10.80;;;5.80;99.90;;;;;;6216247;23;20032;-89
2022/02/03 21:48:48;;;;;;;19.40;11.15;;;5.80;99.90;;;;;;6215601;23;20027;-89
2022/02/03 21:51:21;;;;;;;21.02;11.15;;;5.80;99.90;;;;;;6216043;23;20009;-89
2022/02/03 21:53:47;;;;;;;21.35;10.82;;;5.80;99.90;;;;;;6216090;23;20055;-89
2022/02/03 21:56:13;;;;;;;18.13;10.48;;;5.80;99.90;;;;;;6215986;23;20005;-89
2022/02/03 21:58:39;;;;;;;17.50;10.95;;;5.80;99.90;;;;;;6216085;23;20004;-89
2022/02/03 22:01:05;;;;;;;17.90;10.27;;;5.80;99.90;;;;;;6215990;23;20434;-89
2022/02/03 22:03:31;;;;;;;17.58;10.00;;;5.80;99.90;;;;;;6190965;23;20023;-89
2022/02/03 22:05:59;;;;;;;20.05;10.27;;;5.80;99.90;;;;;;6217223;23;20063;-89
2022/02/03 22:08:26;;;;;;;15.95;10.25;;;5.80;99.90;;;;;;6215945;23;20047;-89
2022/02/03 22:10:52;;;;;;;17.40;10.45;;;5.80;99.90;;;;;;6215962;23;20040;-89
2022/02/03 22:13:18;;;;;;;18.92;11.35;;;5.80;99.90;;;;;;6216003;23;20088;-89
2022/02/03 22:15:44;;;;;;;18.52;11.10;;;5.80;99.90;;;;;;6215939;23;20452;-89
2022/02/03 22:18:14;;;;;;;18.40;10.80;;;5.80;99.90;;;;;;6215999;23;20438;-89
2022/02/03 22:20:48;;;;;;;15.85;9.85;;;5.80;99.90;;;;;;6215951;23;20008;-89
2022/02/03 22:23:36;;;;;;;18.50;9.88;;;5.80;99.90;;;;;;6216654;23;20035;-89
2022/02/03 22:44:58;;;;;;;16.55;9.75;;;5.80;99.90;;;;;;6217427;23;20436;-89
2022/02/03 22:47:38;;;;;;;18.02;9.90;;;5.80;99.90;;;;;;6215300;23;20001;-89
2022/02/03 22:50:07;;;;;;;17.40;10.70;;;5.80;99.90;;;;;;6215322;23;20039;-89
2022/02/03 22:52:33;;;;;;;15.30;9.80;;;5.80;99.90;;;;;;6215367;23;20437;-88
2022/02/03 22:54:59;;;;;;;18.70;10.55;;;5.80;99.90;;;;;;6215366;23;20103;-89
2022/02/03 22:57:25;;;;;;;19.67;10.48;;;5.80;99.90;;;;;;6215364;23;20436;-89
2022/02/03 23:00:11;;;;;;;16.67;9.80;;;5.80;99.90;;;;;;6216943;23;20001;-89
2022/02/03 23:02:38;;;;;;;16.73;10.02;;;5.80;99.90;;;;;;6216390;23;20013;-88
2022/02/03 23:05:05;;;;;;;17.55;10.10;;;5.80;99.90;;;;;;6215566;23;20020;-89
2022/02/03 23:08:17;;;;;;;14.70;9.80;;;5.80;99.90;;;;;;6215319;23;20485;-89
2022/02/03 23:10:45;;;;;;;13.80;9.10;;;5.80;99.90;;;;;;6212602;23;20071;-89
2022/02/03 23:13:25;;;;;;;16.73;9.55;;;5.80;99.90;;;;;;6216894;23;20004;-89
2022/02/03 23:16:16;;;;;;;16.67;10.18;;;5.80;99.90;;;;;;6215116;23;20531;-89
2022/02/03 23:23:45;;;;;;;16.23;10.02;;;5.70;99.90;;;;;;6216693;23;20457;-89
2022/02/03 23:26:11;;;;;;;13.77;8.90;;;5.70;99.90;;;;;;6216862;23;19993;-89
2022/02/03 23:28:37;;;;;;;13.85;8.98;;;5.80;99.90;;;;;;6214984;23;20341;-89
2022/02/03 23:31:03;;;;;;;14.82;9.05;;;5.70;99.90;;;;;;6214995;23;20005;-89
2022/02/03 23:33:30;;;;;;;13.20;8.38;;;5.70;99.90;;;;;;6215089;23;20503;-89
2022/02/03 23:35:56;;;;;;;13.00;8.45;;;5.70;99.90;;;;;;6214999;23;20429;-89
2022/02/03 23:38:43;;;;;;;14.07;8.50;;;5.70;99.90;;;;;;6214924;23;20051;-89
2022/02/03 23:47:07;;;;;;;13.82;8.52;;;5.70;99.90;;;;;;6183931;23;20004;-89
2022/02/03 23:50:17;;;;;;;12.88;8.52;;;5.70;99.90;;;;;;6236148;23;20318;-89
